createdAt,value
2018-09-05T00:01:00.264Z,26.97
2018-09-05T00:03:30.768Z,28.23
2018-09-05T00:06:01.064Z,28.05
2018-09-05T00:08:31.377Z,28.98
2018-09-05T00:11:02.177Z,29.27
2018-09-05T00:13:33.168Z,29.37
2018-09-05T00:16:04.982Z,28.83
2018-09-05T00:18:35.482Z,28.90
2018-09-05T00:21:06.114Z,28.83
2018-09-05T00:23:36.620Z,29.23
2018-09-05T00:26:07.504Z,28.57
2018-09-05T00:28:38.012Z,30.30
2018-09-05T00:31:10.800Z,30.10
2018-09-05T00:33:41.808Z,28.38
2018-09-05T00:36:12.461Z,29.72
2018-09-05T00:38:43.301Z,31.20
2018-09-05T00:41:14.284Z,30.75
2018-09-05T00:43:44.820Z,31.17
2018-09-05T00:46:16.253Z,29.60
2018-09-05T00:48:46.756Z,31.23
2018-09-05T00:51:17.264Z,30.48
2018-09-05T00:53:47.836Z,31.27
2018-09-05T00:56:18.661Z,32.40
2018-09-05T00:58:48.941Z,31.77
2018-09-05T01:01:19.476Z,31.68
2018-09-05T01:03:50.021Z,31.05
2018-09-05T01:06:20.573Z,32.00
2018-09-05T01:08:51.122Z,30.23
2018-09-05T01:11:21.421Z,32.15
2018-09-05T01:13:51.708Z,32.20
2018-09-05T01:16:22.712Z,31.17
2018-09-05T01:18:53.004Z,31.93
2018-09-05T01:21:23.627Z,31.48
2018-09-05T01:23:54.364Z,31.93
2018-09-05T01:26:25.836Z,32.20
2018-09-05T01:28:56.356Z,31.97
2018-09-05T01:31:27.325Z,32.20
2018-09-05T01:33:58.057Z,32.15
2018-09-05T01:36:29.514Z,31.77
2018-09-05T01:38:59.809Z,31.02
2018-09-05T01:41:32.360Z,32.25
2018-09-05T01:44:03.493Z,33.33
2018-09-05T01:46:34.460Z,32.13
2018-09-05T01:49:05.409Z,33.05
2018-09-05T01:51:36.299Z,33.25
2018-09-05T01:54:07.280Z,33.23
2018-09-05T01:56:38.076Z,33.10
2018-09-05T01:59:08.636Z,32.75
2018-09-05T02:01:39.521Z,33.42
2018-09-05T02:04:09.801Z,35.13
2018-09-05T02:06:40.992Z,33.02
2018-09-05T02:09:13.081Z,35.45
2018-09-05T02:11:44.512Z,33.02
2018-09-05T02:14:15.328Z,34.73
2018-09-05T02:16:45.986Z,35.48
2018-09-05T02:19:16.515Z,35.17
2018-09-05T02:21:47.456Z,33.88
2018-09-05T02:24:18.010Z,33.30
2018-09-05T02:26:48.619Z,33.25
2018-09-05T02:29:18.936Z,34.73
2018-09-05T02:31:49.389Z,34.40
2018-09-05T02:34:19.913Z,35.85
2018-09-05T02:36:50.737Z,35.63
2018-09-05T02:39:21.281Z,35.00
2018-09-05T02:41:52.618Z,35.60
2018-09-05T02:44:23.902Z,35.68
2018-09-05T02:46:54.708Z,33.75
2018-09-05T02:49:25.243Z,34.88
2018-09-05T02:51:56.075Z,36.40
2018-09-05T02:54:26.840Z,34.35
2018-09-05T02:56:57.634Z,34.53
2018-09-05T02:59:28.176Z,35.65
2018-09-05T03:01:59.015Z,35.35
2018-09-05T03:04:29.546Z,35.00
2018-09-05T03:07:00.346Z,35.48
2018-09-05T03:09:30.961Z,34.83
2018-09-05T03:12:01.407Z,34.88
2018-09-05T03:14:32.209Z,35.35
2018-09-05T03:17:03.025Z,37.28
2018-09-05T03:19:33.538Z,36.48
2018-09-05T03:22:04.373Z,35.75
2018-09-05T03:24:34.689Z,36.80
2018-09-05T03:27:05.689Z,36.13
2018-09-05T03:29:36.230Z,36.68
2018-09-05T03:32:06.858Z,36.77
2018-09-05T03:34:37.662Z,37.13
2018-09-05T03:37:08.482Z,35.10
2018-09-05T03:39:38.797Z,36.45
2018-09-05T03:42:09.125Z,36.68
2018-09-05T03:44:40.002Z,37.33
2018-09-05T03:47:10.907Z,35.75
2018-09-05T03:49:41.732Z,35.35
2018-09-05T03:52:12.579Z,37.98
2018-09-05T03:54:42.925Z,38.02
2018-09-05T03:57:13.461Z,35.25
2018-09-05T03:59:43.798Z,37.40
2018-09-05T04:02:14.594Z,38.08
2018-09-05T04:04:44.908Z,35.85
2018-09-05T04:07:15.533Z,38.58
2018-09-05T04:09:46.186Z,37.75
2018-09-05T04:12:16.894Z,36.55
2018-09-05T04:14:48.121Z,36.40
2018-09-05T04:17:18.737Z,37.00
2018-09-05T04:19:49.330Z,37.33
2018-09-05T04:22:19.691Z,37.23
2018-09-05T04:24:50.018Z,35.30
2018-09-05T04:27:20.613Z,35.55
2018-09-05T04:29:51.459Z,35.13
2018-09-05T04:32:22.210Z,33.90
2018-09-05T04:34:53.018Z,34.53
2018-09-05T04:37:23.771Z,31.80
2018-09-05T04:39:54.313Z,32.58
2018-09-05T04:42:25.345Z,31.87
2018-09-05T04:44:56.077Z,30.10
2018-09-05T04:47:26.930Z,31.05
2018-09-05T04:49:57.442Z,28.23
2018-09-05T04:52:28.349Z,30.52
2018-09-05T04:54:59.093Z,28.57
2018-09-05T04:57:29.962Z,29.60
2018-09-05T05:00:00.522Z,27.52
2018-09-05T05:02:31.122Z,27.45
2018-09-05T05:05:01.654Z,25.23
2018-09-05T05:07:32.203Z,23.57
2018-09-05T05:10:02.757Z,22.02
2018-09-05T05:12:33.636Z,21.95
2018-09-05T05:15:04.340Z,21.85
2018-09-05T05:17:34.914Z,22.10
2018-09-05T05:20:05.542Z,19.20
2018-09-05T05:22:36.126Z,17.00
2018-09-05T05:25:06.897Z,16.10
2018-09-05T05:27:37.222Z,14.73
2018-09-05T05:30:07.858Z,15.25
2018-09-05T05:32:38.272Z,15.93
2018-09-05T05:35:09.142Z,16.20
2018-09-05T05:37:40.041Z,15.75
2018-09-05T05:40:11.502Z,16.37
2018-09-05T05:42:42.462Z,17.00
2018-09-05T05:45:13.235Z,16.85
2018-09-05T05:47:44.538Z,17.30
2018-09-05T05:50:15.414Z,17.23
2018-09-05T05:52:46.526Z,17.17
2018-09-05T05:55:17.345Z,17.15
2018-09-05T05:57:48.888Z,17.98
2018-09-05T06:00:22.898Z,17.52
2018-09-05T06:02:54.159Z,19.55
2018-09-05T06:05:24.991Z,16.73
2018-09-05T06:07:56.361Z,18.20
2018-09-05T06:10:27.738Z,17.07
2018-09-05T06:12:59.290Z,17.30
2018-09-05T06:15:29.854Z,16.87
2018-09-05T06:18:01.237Z,17.25
2018-09-05T06:20:32.207Z,18.48
2018-09-05T06:23:02.807Z,18.82
2018-09-05T06:25:33.347Z,18.30
2018-09-05T06:28:03.897Z,17.37
2018-09-05T06:30:34.702Z,17.82
2018-09-05T06:33:05.878Z,17.50
2018-09-05T06:35:36.257Z,16.55
2018-09-05T06:38:08.139Z,16.35
2018-09-05T06:40:38.654Z,16.40
2018-09-05T06:43:09.072Z,14.28
2018-09-05T06:45:39.624Z,14.20
2018-09-05T06:48:10.205Z,14.60
2018-09-05T06:50:40.769Z,12.95
2018-09-05T06:53:11.322Z,13.00
2018-09-05T06:55:42.202Z,16.40
2018-09-05T06:58:12.791Z,15.95
2018-09-05T07:00:44.000Z,15.25
2018-09-05T07:03:15.601Z,15.65
2018-09-05T07:05:46.138Z,16.95
2018-09-05T07:08:16.985Z,16.42
2018-09-05T07:10:47.554Z,15.68
2018-09-05T07:13:18.127Z,14.93
2018-09-05T07:15:48.465Z,12.58
2018-09-05T07:18:19.159Z,11.18
2018-09-05T07:20:49.722Z,12.60
2018-09-05T07:23:20.808Z,13.15
2018-09-05T07:25:51.546Z,12.53
2018-09-05T07:28:22.358Z,13.43
2018-09-05T07:30:52.970Z,14.23
2018-09-05T07:33:23.798Z,14.87
2018-09-05T07:35:54.361Z,16.70
2018-09-05T07:38:25.135Z,17.57
2018-09-05T07:40:55.675Z,19.35
2018-09-05T07:43:26.047Z,17.32
2018-09-05T07:45:56.778Z,15.80
2018-09-05T07:48:27.640Z,14.87
2018-09-05T07:50:58.213Z,14.95
2018-09-05T07:53:29.035Z,18.65
2018-09-05T07:55:59.698Z,24.90
2018-09-05T07:58:30.026Z,18.40
2018-09-05T08:01:00.592Z,15.32
2018-09-05T08:03:31.613Z,16.17
2018-09-05T08:06:02.131Z,16.67
2018-09-05T08:08:32.462Z,15.38
2018-09-05T08:11:03.037Z,15.05
2018-09-05T08:13:33.633Z,16.00
2018-09-05T08:16:04.201Z,20.45
2018-09-05T08:18:34.857Z,17.65
2018-09-05T08:21:05.474Z,17.23
2018-09-05T08:23:36.416Z,17.92
2018-09-05T08:26:07.029Z,16.10
2018-09-05T08:28:37.634Z,18.17
2018-09-05T08:31:08.198Z,15.45
2018-09-05T08:33:38.782Z,15.28
2018-09-05T08:36:09.793Z,12.40
2018-09-05T08:38:40.112Z,13.18
2018-09-05T08:41:11.744Z,13.83
2018-09-05T14:02:51.960Z,7.15
2018-09-05T14:05:23.005Z,7.90
2018-09-05T14:07:54.020Z,7.45
2018-09-05T14:10:24.715Z,7.72
2018-09-05T14:12:55.261Z,7.15
2018-09-05T14:15:25.974Z,7.70
2018-09-05T14:17:56.792Z,7.25
2018-09-05T14:20:27.559Z,7.92
2018-09-05T14:22:58.655Z,7.67
2018-09-05T14:25:28.927Z,8.03
2018-09-05T14:27:59.490Z,7.95
2018-09-05T14:30:30.050Z,8.30
2018-09-05T14:33:00.694Z,8.63
2018-09-05T14:35:31.300Z,8.08
2018-09-05T14:38:02.638Z,8.30
2018-09-05T14:42:34.439Z,8.45
2018-09-05T14:45:05.027Z,8.30
2018-09-05T14:47:35.520Z,8.03
2018-09-05T14:50:06.572Z,8.05
2018-09-05T14:52:37.159Z,8.28
2018-09-05T14:55:07.748Z,9.10
2018-09-05T14:57:39.150Z,8.73
2018-09-05T15:00:09.716Z,8.58
2018-09-05T15:02:40.526Z,8.18
2018-09-05T15:05:11.179Z,8.70
2018-09-05T15:07:45.896Z,8.13
2018-09-05T15:10:16.123Z,8.23
2018-09-05T15:12:46.975Z,8.38
2018-09-05T15:15:17.562Z,8.85
2018-09-05T15:17:48.466Z,9.25
2018-09-05T15:20:19.193Z,9.20
2018-09-05T15:22:49.840Z,8.55
2018-09-05T15:25:20.415Z,8.23
2018-09-05T15:27:50.987Z,9.55
2018-09-05T15:30:22.235Z,8.88
2018-09-05T15:32:52.927Z,9.48
2018-09-05T15:35:23.746Z,9.08
2018-09-05T15:37:54.711Z,8.75
2018-09-05T15:40:25.289Z,8.80
2018-09-05T15:42:55.978Z,9.40
2018-09-05T15:45:27.571Z,8.45
2018-09-05T15:47:58.599Z,8.55
2018-09-05T15:50:29.288Z,8.65
2018-09-05T15:52:59.832Z,9.55
2018-09-05T15:55:30.430Z,8.93
2018-09-05T15:58:01.028Z,9.05
2018-09-05T16:00:31.924Z,10.80
2018-09-05T16:03:02.503Z,10.32
2018-09-05T16:05:33.295Z,9.50
2018-09-05T16:08:04.139Z,10.15
2018-09-05T16:10:34.710Z,10.10
2018-09-05T16:13:05.279Z,10.25
2018-09-05T16:15:36.189Z,9.40
2018-09-05T16:18:06.646Z,10.28
2018-09-05T16:20:37.223Z,9.18
2018-09-05T16:23:07.862Z,9.20
2018-09-05T16:25:38.442Z,8.68
2018-09-05T16:28:08.786Z,9.03
2018-09-05T16:30:39.350Z,10.90
2018-09-05T16:33:09.942Z,8.18
2018-09-05T16:35:40.812Z,9.20
2018-09-05T16:38:11.561Z,9.40
2018-09-05T16:40:41.923Z,10.82
2018-09-05T16:43:12.302Z,10.45
2018-09-05T16:45:42.883Z,11.30
2018-09-05T16:48:13.771Z,11.57
2018-09-05T16:50:47.567Z,13.55
2018-09-05T16:53:21.931Z,13.98
2018-09-05T16:55:53.032Z,13.72
2018-09-05T16:58:23.607Z,13.43
2018-09-05T17:00:54.263Z,13.18
2018-09-05T17:03:25.018Z,15.48
2018-09-05T17:05:55.618Z,14.78
2018-09-05T17:08:26.639Z,15.53
2018-09-05T17:10:57.241Z,15.68
2018-09-05T17:13:27.767Z,15.15
2018-09-05T17:15:58.336Z,15.83
2018-09-05T17:18:29.139Z,15.63
2018-09-05T17:20:59.931Z,18.60
2018-09-05T17:23:30.724Z,18.30
2018-09-05T17:26:01.576Z,19.52
2018-09-05T17:28:32.371Z,21.68
2018-09-05T17:31:03.458Z,20.05
2018-09-05T17:33:34.087Z,21.45
2018-09-05T17:36:04.723Z,21.80
2018-09-05T17:38:35.396Z,22.35
2018-09-05T17:41:06.084Z,20.85
2018-09-05T17:43:37.486Z,21.52
2018-09-05T17:46:07.919Z,20.97
2018-09-05T17:48:38.494Z,21.52
2018-09-05T17:51:08.902Z,21.62
2018-09-05T17:53:39.588Z,21.15
2018-09-05T17:56:38.045Z,22.00
2018-09-05T17:59:09.170Z,22.40
2018-09-05T18:01:39.867Z,21.68
2018-09-05T18:04:10.363Z,21.65
2018-09-05T18:06:40.906Z,22.65
2018-09-05T18:09:12.313Z,22.82
2018-09-05T18:11:42.890Z,21.42
2018-09-05T18:14:13.814Z,22.22
2018-09-05T18:16:44.735Z,23.57
2018-09-05T18:19:15.348Z,21.62
2018-09-05T18:21:45.627Z,20.32
2018-09-05T18:24:16.194Z,16.23
2018-09-05T18:26:46.721Z,16.97
2018-09-05T18:29:16.982Z,14.10
2018-09-05T18:31:47.518Z,16.42
2018-09-05T18:34:18.090Z,17.15
2018-09-05T18:36:48.723Z,16.20
2018-09-05T18:39:19.932Z,16.57
2018-09-05T18:41:50.517Z,16.23
2018-09-05T18:44:21.538Z,16.10
2018-09-05T18:46:51.902Z,17.27
2018-09-05T18:49:22.559Z,16.45
2018-09-05T18:51:53.738Z,16.95
2018-09-05T18:54:24.316Z,16.27
2018-09-05T18:56:54.867Z,16.10
2018-09-05T18:59:25.435Z,16.32
2018-09-05T19:01:55.991Z,15.43
2018-09-05T19:04:26.546Z,16.00
2018-09-05T19:06:58.018Z,16.20
2018-09-05T19:09:28.557Z,14.95
2018-09-05T19:11:59.538Z,15.23
2018-09-05T19:14:30.350Z,15.15
2018-09-05T19:17:01.195Z,15.10
2018-09-05T19:19:31.746Z,14.78
2018-09-05T19:22:02.082Z,15.85
2018-09-05T19:24:32.626Z,15.15
2018-09-05T19:27:03.180Z,14.63
2018-09-05T19:29:33.790Z,15.58
2018-09-05T19:32:04.123Z,16.07
2018-09-05T19:34:35.598Z,15.93
2018-09-05T19:37:06.146Z,15.95
2018-09-05T19:39:36.747Z,16.35
2018-09-05T19:42:07.490Z,16.97
2018-09-05T19:44:38.059Z,17.70
2018-09-05T19:47:08.624Z,18.20
2018-09-05T19:49:39.726Z,17.85
2018-09-05T19:52:10.396Z,18.42
2018-09-05T19:54:41.124Z,18.60
2018-09-05T19:57:11.934Z,18.52
2018-09-05T19:59:42.762Z,19.37
2018-09-05T20:02:13.682Z,19.67
2018-09-05T20:04:44.263Z,19.62
2018-09-05T20:07:14.821Z,19.27
2018-09-05T20:09:45.392Z,20.05
2018-09-05T20:12:16.230Z,20.12
2018-09-05T20:14:46.815Z,21.15
2018-09-05T20:17:18.312Z,20.70
2018-09-05T20:19:48.906Z,20.32
2018-09-05T20:22:19.891Z,20.85
2018-09-05T20:24:50.770Z,21.00
2018-09-05T20:27:21.167Z,21.73
2018-09-05T20:29:51.515Z,20.68
2018-09-05T20:32:22.098Z,20.88
2018-09-05T20:34:52.769Z,20.05
2018-09-05T20:37:23.514Z,20.85
2018-09-05T20:39:53.884Z,20.02
2018-09-05T20:42:24.430Z,21.20
2018-09-05T20:44:55.039Z,19.05
2018-09-05T20:47:25.598Z,19.48
2018-09-05T20:49:56.181Z,19.32
2018-09-05T20:52:26.939Z,18.62
2018-09-05T20:54:57.850Z,18.80
2018-09-05T20:57:28.482Z,18.20
2018-09-05T20:59:59.194Z,18.42
2018-09-05T21:02:29.775Z,17.98
2018-09-05T21:05:00.162Z,16.82
2018-09-05T21:07:30.626Z,16.80
2018-09-05T21:10:00.950Z,17.05
2018-09-05T21:12:31.495Z,17.12
2018-09-05T21:15:01.826Z,15.70
2018-09-05T21:17:32.542Z,16.05
2018-09-05T21:20:03.471Z,15.55
2018-09-05T21:22:34.042Z,16.82
2018-09-05T21:25:05.056Z,15.63
2018-09-05T21:27:35.931Z,15.10
2018-09-05T21:30:06.866Z,15.23
2018-09-05T21:32:37.199Z,14.70
2018-09-05T21:35:07.917Z,14.75
2018-09-05T21:37:38.438Z,14.43
2018-09-05T21:40:09.289Z,15.25
2018-09-05T21:42:39.977Z,15.65
2018-09-05T21:45:11.194Z,15.08
2018-09-05T21:47:41.734Z,15.23
2018-09-05T21:50:12.525Z,15.15
2018-09-05T21:52:43.073Z,15.75
2018-09-05T21:55:14.161Z,15.03
2018-09-05T21:57:44.482Z,15.85
2018-09-05T22:00:15.307Z,15.25
2018-09-05T22:02:46.102Z,16.35
2018-09-05T22:05:16.930Z,15.00
2018-09-05T22:07:47.721Z,16.30
2018-09-05T22:10:18.646Z,15.83
2018-09-05T22:12:48.970Z,16.50
2018-09-05T22:15:19.610Z,15.60
2018-09-05T22:17:49.930Z,16.00
2018-09-05T22:20:20.494Z,15.93
2018-09-05T22:22:50.826Z,15.38
2018-09-05T22:25:21.629Z,15.00
2018-09-05T22:27:52.198Z,14.47
2018-09-05T22:30:22.740Z,15.43
2018-09-05T22:32:54.462Z,15.30
2018-09-05T22:35:25.335Z,16.97
2018-09-05T22:37:56.006Z,16.73
2018-09-05T22:40:29.441Z,18.32
2018-09-05T22:43:17.313Z,18.35
2018-09-05T22:46:05.122Z,19.02
2018-09-05T22:48:55.754Z,19.55
2018-09-05T22:52:23.381Z,19.82
2018-09-05T22:55:14.858Z,20.15
2018-09-05T22:58:25.811Z,20.27
2018-09-05T23:02:12.895Z,19.80
2018-09-05T23:05:09.083Z,21.15
2018-09-05T23:07:55.387Z,20.25
2018-09-05T23:10:43.338Z,21.48
2018-09-05T23:13:31.280Z,21.02
2018-09-05T23:16:19.010Z,22.20
2018-09-05T23:21:14.578Z,21.40
2018-09-05T23:24:00.255Z,22.73
2018-09-05T23:26:31.030Z,23.52
2018-09-05T23:29:02.251Z,25.82
2018-09-05T23:31:32.866Z,24.60
2018-09-05T23:34:03.670Z,26.40
2018-09-05T23:36:34.248Z,24.80
2018-09-05T23:39:06.984Z,26.80
2018-09-05T23:41:37.529Z,25.57
2018-09-05T23:44:07.857Z,27.13
2018-09-05T23:46:38.194Z,26.62
2018-09-05T23:49:08.798Z,24.98
2018-09-05T23:51:39.377Z,26.90
2018-09-05T23:54:10.180Z,26.02
2018-09-05T23:56:40.958Z,29.82
2018-09-05T23:59:11.845Z,29.48
